sensor_id;sensor_type;location;lat;lon;timestamp;temperature;humidity
680;DHT22;322;48.846;9.230;2023-11-22T00:02:07;6.60;99.90
680;DHT22;322;48.846;9.230;2023-11-22T00:04:35;6.40;99.90
680;DHT22;322;48.846;9.230;2023-11-22T00:07:04;6.30;99.90
680;DHT22;322;48.846;9.230;2023-11-22T00:09:31;6.20;99.90
680;DHT22;322;48.846;9.230;2023-11-22T00:11:59;6.00;99.90
680;DHT22;322;48.846;9.230;2023-11-22T00:14:29;5.90;99.90
680;DHT22;322;48.846;9.230;2023-11-22T00:16:57;5.90;99.90
680;DHT22;322;48.846;9.230;2023-11-22T00:19:25;5.80;99.90
680;DHT22;322;48.846;9.230;2023-11-22T00:21:53;5.80;99.90
680;DHT22;322;48.846;9.230;2023-11-22T00:24:21;5.70;99.90
680;DHT22;322;48.846;9.230;2023-11-22T00:26:49;5.70;99.90
680;DHT22;322;48.846;9.230;2023-11-22T00:29:17;5.70;99.90
680;DHT22;322;48.846;9.230;2023-11-22T00:31:46;5.60;99.90
680;DHT22;322;48.846;9.230;2023-11-22T00:34:14;5.60;99.90
680;DHT22;322;48.846;9.230;2023-11-22T00:36:46;5.50;99.90
680;DHT22;322;48.846;9.230;2023-11-22T00:39:15;5.50;99.90
680;DHT22;322;48.846;9.230;2023-11-22T00:41:43;5.50;99.90
680;DHT22;322;48.846;9.230;2023-11-22T00:44:11;5.50;99.90
680;DHT22;322;48.846;9.230;2023-11-22T00:46:39;5.50;99.90
680;DHT22;322;48.846;9.230;2023-11-22T00:49:10;5.50;99.90
680;DHT22;322;48.846;9.230;2023-11-22T00:51:38;5.50;99.90
680;DHT22;322;48.846;9.230;2023-11-22T00:54:06;5.50;99.90
680;DHT22;322;48.846;9.230;2023-11-22T00:56:34;5.40;99.90
680;DHT22;322;48.846;9.230;2023-11-22T00:59:02;5.40;99.90
680;DHT22;322;48.846;9.230;2023-11-22T01:01:31;5.40;99.90
680;DHT22;322;48.846;9.230;2023-11-22T01:03:59;5.30;99.90
680;DHT22;322;48.846;9.230;2023-11-22T01:06:28;5.20;99.90
680;DHT22;322;48.846;9.230;2023-11-22T01:08:58;5.20;99.90
680;DHT22;322;48.846;9.230;2023-11-22T01:11:26;5.10;99.90
680;DHT22;322;48.846;9.230;2023-11-22T01:13:54;5.00;99.90
680;DHT22;322;48.846;9.230;2023-11-22T01:16:23;5.00;99.90
680;DHT22;322;48.846;9.230;2023-11-22T01:18:51;5.00;99.90
680;DHT22;322;48.846;9.230;2023-11-22T01:21:20;4.90;99.90
680;DHT22;322;48.846;9.230;2023-11-22T01:23:49;4.90;99.90
680;DHT22;322;48.846;9.230;2023-11-22T01:26:17;4.90;99.90
680;DHT22;322;48.846;9.230;2023-11-22T01:28:45;4.90;99.90
680;DHT22;322;48.846;9.230;2023-11-22T01:31:13;4.90;99.90
680;DHT22;322;48.846;9.230;2023-11-22T01:33:41;4.90;99.90
680;DHT22;322;48.846;9.230;2023-11-22T01:36:09;4.90;99.90
680;DHT22;322;48.846;9.230;2023-11-22T01:38:37;4.80;99.90
680;DHT22;322;48.846;9.230;2023-11-22T01:41:07;4.80;99.90
680;DHT22;322;48.846;9.230;2023-11-22T01:43:36;4.80;99.90
680;DHT22;322;48.846;9.230;2023-11-22T01:46:07;4.80;99.90
680;DHT22;322;48.846;9.230;2023-11-22T01:48:35;4.70;99.90
680;DHT22;322;48.846;9.230;2023-11-22T01:51:04;4.70;99.90
680;DHT22;322;48.846;9.230;2023-11-22T01:53:34;4.70;99.90
680;DHT22;322;48.846;9.230;2023-11-22T01:56:02;4.60;99.90
680;DHT22;322;48.846;9.230;2023-11-22T01:58:32;4.60;99.90
680;DHT22;322;48.846;9.230;2023-11-22T02:01:00;4.60;99.90
680;DHT22;322;48.846;9.230;2023-11-22T02:03:29;4.60;99.90
680;DHT22;322;48.846;9.230;2023-11-22T02:05:58;4.60;99.90
680;DHT22;322;48.846;9.230;2023-11-22T02:08:27;4.60;99.90
680;DHT22;322;48.846;9.230;2023-11-22T02:10:58;4.60;99.90
680;DHT22;322;48.846;9.230;2023-11-22T02:13:29;4.60;99.90
680;DHT22;322;48.846;9.230;2023-11-22T02:15:58;4.60;99.90
680;DHT22;322;48.846;9.230;2023-11-22T02:18:28;4.60;99.90
680;DHT22;322;48.846;9.230;2023-11-22T02:20:56;4.60;99.90
680;DHT22;322;48.846;9.230;2023-11-22T02:23:26;4.60;99.90
680;DHT22;322;48.846;9.230;2023-11-22T02:25:55;4.60;99.90
680;DHT22;322;48.846;9.230;2023-11-22T02:28:23;4.60;99.90
680;DHT22;322;48.846;9.230;2023-11-22T02:30:51;4.50;99.90
680;DHT22;322;48.846;9.230;2023-11-22T02:33:19;4.50;99.90
680;DHT22;322;48.846;9.230;2023-11-22T02:35:47;4.60;99.90
680;DHT22;322;48.846;9.230;2023-11-22T02:38:16;4.50;99.90
680;DHT22;322;48.846;9.230;2023-11-22T02:40:46;4.50;99.90
680;DHT22;322;48.846;9.230;2023-11-22T02:43:16;4.50;99.90
680;DHT22;322;48.846;9.230;2023-11-22T02:45:44;4.40;99.90
680;DHT22;322;48.846;9.230;2023-11-22T02:48:12;4.30;99.90
680;DHT22;322;48.846;9.230;2023-11-22T02:50:40;4.30;99.90
680;DHT22;322;48.846;9.230;2023-11-22T02:53:10;4.30;99.90
680;DHT22;322;48.846;9.230;2023-11-22T02:55:39;4.30;99.90
680;DHT22;322;48.846;9.230;2023-11-22T02:58:08;4.20;99.90
680;DHT22;322;48.846;9.230;2023-11-22T03:00:40;4.20;99.90
680;DHT22;322;48.846;9.230;2023-11-22T03:03:08;4.20;99.90
680;DHT22;322;48.846;9.230;2023-11-22T03:05:37;4.20;99.90
680;DHT22;322;48.846;9.230;2023-11-22T03:08:05;4.20;99.90
680;DHT22;322;48.846;9.230;2023-11-22T03:10:34;4.10;99.90
680;DHT22;322;48.846;9.230;2023-11-22T03:13:03;4.00;99.90
680;DHT22;322;48.846;9.230;2023-11-22T03:15:33;4.00;99.90
680;DHT22;322;48.846;9.230;2023-11-22T03:18:01;4.00;99.90
680;DHT22;322;48.846;9.230;2023-11-22T03:20:30;4.00;99.90
680;DHT22;322;48.846;9.230;2023-11-22T03:22:59;4.00;99.90
680;DHT22;322;48.846;9.230;2023-11-22T03:25:27;4.00;99.90
680;DHT22;322;48.846;9.230;2023-11-22T03:27:55;4.00;99.90
680;DHT22;322;48.846;9.230;2023-11-22T03:30:23;4.00;99.90
680;DHT22;322;48.846;9.230;2023-11-22T03:32:52;4.00;99.90
680;DHT22;322;48.846;9.230;2023-11-22T03:35:21;4.10;99.90
680;DHT22;322;48.846;9.230;2023-11-22T03:37:49;4.10;99.90
680;DHT22;322;48.846;9.230;2023-11-22T03:40:17;4.10;99.90
680;DHT22;322;48.846;9.230;2023-11-22T03:42:45;4.10;99.90
680;DHT22;322;48.846;9.230;2023-11-22T03:45:13;4.10;99.90
680;DHT22;322;48.846;9.230;2023-11-22T03:47:41;4.10;99.90
680;DHT22;322;48.846;9.230;2023-11-22T03:50:10;4.10;99.90
680;DHT22;322;48.846;9.230;2023-11-22T03:52:38;4.10;99.90
680;DHT22;322;48.846;9.230;2023-11-22T03:55:06;4.10;99.90
680;DHT22;322;48.846;9.230;2023-11-22T03:57:34;4.10;99.90
680;DHT22;322;48.846;9.230;2023-11-22T04:00:03;4.10;99.90
680;DHT22;322;48.846;9.230;2023-11-22T04:02:33;4.10;99.90
680;DHT22;322;48.846;9.230;2023-11-22T04:05:01;4.10;99.90
680;DHT22;322;48.846;9.230;2023-11-22T04:07:30;4.10;99.90
680;DHT22;322;48.846;9.230;2023-11-22T04:09:59;4.00;99.90
680;DHT22;322;48.846;9.230;2023-11-22T04:12:27;4.00;99.90
680;DHT22;322;48.846;9.230;2023-11-22T04:14:55;4.00;99.90
680;DHT22;322;48.846;9.230;2023-11-22T04:17:23;4.10;99.90
680;DHT22;322;48.846;9.230;2023-11-22T04:19:51;4.00;99.90
680;DHT22;322;48.846;9.230;2023-11-22T04:22:19;4.00;99.90
680;DHT22;322;48.846;9.230;2023-11-22T04:24:48;4.10;99.90
680;DHT22;322;48.846;9.230;2023-11-22T04:27:16;4.10;99.90
680;DHT22;322;48.846;9.230;2023-11-22T04:29:44;4.00;99.90
680;DHT22;322;48.846;9.230;2023-11-22T04:32:12;4.00;99.90
680;DHT22;322;48.846;9.230;2023-11-22T04:34:40;4.00;99.90
680;DHT22;322;48.846;9.230;2023-11-22T04:37:08;4.00;99.90
680;DHT22;322;48.846;9.230;2023-11-22T04:39:36;4.00;99.90
680;DHT22;322;48.846;9.230;2023-11-22T04:42:05;4.00;99.90
680;DHT22;322;48.846;9.230;2023-11-22T04:44:33;4.00;99.90
680;DHT22;322;48.846;9.230;2023-11-22T04:47:01;4.00;99.90
680;DHT22;322;48.846;9.230;2023-11-22T04:49:30;4.00;99.90
680;DHT22;322;48.846;9.230;2023-11-22T04:51:58;4.00;99.90
680;DHT22;322;48.846;9.230;2023-11-22T04:54:28;4.00;99.90
680;DHT22;322;48.846;9.230;2023-11-22T04:56:56;4.00;99.90
680;DHT22;322;48.846;9.230;2023-11-22T04:59:25;4.00;99.90
680;DHT22;322;48.846;9.230;2023-11-22T05:01:53;4.00;99.90
680;DHT22;322;48.846;9.230;2023-11-22T05:04:21;4.00;99.90
680;DHT22;322;48.846;9.230;2023-11-22T05:06:49;3.90;99.90
680;DHT22;322;48.846;9.230;2023-11-22T05:09:17;3.90;99.90
680;DHT22;322;48.846;9.230;2023-11-22T05:11:45;3.90;99.90
680;DHT22;322;48.846;9.230;2023-11-22T05:14:14;4.00;99.90
680;DHT22;322;48.846;9.230;2023-11-22T05:16:43;3.90;99.90
680;DHT22;322;48.846;9.230;2023-11-22T05:19:11;3.90;99.90
680;DHT22;322;48.846;9.230;2023-11-22T05:21:39;3.90;99.90
680;DHT22;322;48.846;9.230;2023-11-22T05:24:07;3.90;99.90
680;DHT22;322;48.846;9.230;2023-11-22T05:26:35;3.90;99.90
680;DHT22;322;48.846;9.230;2023-11-22T05:29:04;3.90;99.90
680;DHT22;322;48.846;9.230;2023-11-22T05:31:32;3.80;99.90
680;DHT22;322;48.846;9.230;2023-11-22T05:34:02;3.80;99.90
680;DHT22;322;48.846;9.230;2023-11-22T05:36:30;3.80;99.90
680;DHT22;322;48.846;9.230;2023-11-22T05:38:58;3.80;99.90
680;DHT22;322;48.846;9.230;2023-11-22T05:41:26;3.80;99.90
680;DHT22;322;48.846;9.230;2023-11-22T05:43:54;3.80;99.90
680;DHT22;322;48.846;9.230;2023-11-22T05:46:22;3.80;99.90
680;DHT22;322;48.846;9.230;2023-11-22T05:48:51;3.70;99.90
680;DHT22;322;48.846;9.230;2023-11-22T05:51:21;3.70;99.90
680;DHT22;322;48.846;9.230;2023-11-22T05:53:49;3.70;99.90
680;DHT22;322;48.846;9.230;2023-11-22T05:56:17;3.80;99.90
680;DHT22;322;48.846;9.230;2023-11-22T05:58:45;3.80;99.90
680;DHT22;322;48.846;9.230;2023-11-22T06:01:13;3.80;99.90
680;DHT22;322;48.846;9.230;2023-11-22T06:03:42;3.70;99.90
680;DHT22;322;48.846;9.230;2023-11-22T06:06:12;3.80;99.90
680;DHT22;322;48.846;9.230;2023-11-22T06:08:42;3.80;99.90
680;DHT22;322;48.846;9.230;2023-11-22T06:11:10;3.70;99.90
680;DHT22;322;48.846;9.230;2023-11-22T06:13:40;3.80;99.90
680;DHT22;322;48.846;9.230;2023-11-22T06:16:09;3.70;99.90
680;DHT22;322;48.846;9.230;2023-11-22T06:18:37;3.70;99.90
680;DHT22;322;48.846;9.230;2023-11-22T06:21:07;3.70;99.90
680;DHT22;322;48.846;9.230;2023-11-22T06:23:35;3.70;99.90
680;DHT22;322;48.846;9.230;2023-11-22T06:26:05;3.70;99.90
680;DHT22;322;48.846;9.230;2023-11-22T06:28:33;3.60;99.90
680;DHT22;322;48.846;9.230;2023-11-22T06:31:02;3.60;99.90
680;DHT22;322;48.846;9.230;2023-11-22T06:33:30;3.70;99.90
680;DHT22;322;48.846;9.230;2023-11-22T06:35:58;3.70;99.90
680;DHT22;322;48.846;9.230;2023-11-22T06:38:27;3.70;99.90
680;DHT22;322;48.846;9.230;2023-11-22T06:40:55;3.60;99.90
680;DHT22;322;48.846;9.230;2023-11-22T06:43:24;3.60;99.90
680;DHT22;322;48.846;9.230;2023-11-22T06:45:52;3.60;99.90
680;DHT22;322;48.846;9.230;2023-11-22T06:48:20;3.60;99.90
680;DHT22;322;48.846;9.230;2023-11-22T06:50:48;3.50;99.90
680;DHT22;322;48.846;9.230;2023-11-22T06:53:16;3.50;99.90
680;DHT22;322;48.846;9.230;2023-11-22T06:55:46;3.50;99.90
680;DHT22;322;48.846;9.230;2023-11-22T06:58:14;3.50;99.90
680;DHT22;322;48.846;9.230;2023-11-22T07:00:45;3.40;99.90
680;DHT22;322;48.846;9.230;2023-11-22T07:03:13;3.40;99.90
680;DHT22;322;48.846;9.230;2023-11-22T07:05:42;3.40;99.90
680;DHT22;322;48.846;9.230;2023-11-22T07:08:11;3.40;99.90
680;DHT22;322;48.846;9.230;2023-11-22T07:10:39;3.30;99.90
680;DHT22;322;48.846;9.230;2023-11-22T07:13:07;3.30;99.90
680;DHT22;322;48.846;9.230;2023-11-22T07:15:35;3.30;99.90
680;DHT22;322;48.846;9.230;2023-11-22T07:18:05;3.30;99.90
680;DHT22;322;48.846;9.230;2023-11-22T07:20:33;3.20;99.90
680;DHT22;322;48.846;9.230;2023-11-22T07:23:01;3.20;99.90
680;DHT22;322;48.846;9.230;2023-11-22T07:25:29;3.20;99.90
680;DHT22;322;48.846;9.230;2023-11-22T07:27:58;3.20;99.90
680;DHT22;322;48.846;9.230;2023-11-22T07:30:26;3.10;99.90
680;DHT22;322;48.846;9.230;2023-11-22T07:32:57;3.20;99.90
680;DHT22;322;48.846;9.230;2023-11-22T07:35:28;3.10;99.90
680;DHT22;322;48.846;9.230;2023-11-22T07:37:56;3.10;99.90
680;DHT22;322;48.846;9.230;2023-11-22T07:40:24;3.10;99.90
680;DHT22;322;48.846;9.230;2023-11-22T07:42:52;3.10;99.90
680;DHT22;322;48.846;9.230;2023-11-22T07:45:21;3.10;99.90
680;DHT22;322;48.846;9.230;2023-11-22T07:47:49;3.10;99.90
680;DHT22;322;48.846;9.230;2023-11-22T07:50:20;3.00;99.90
680;DHT22;322;48.846;9.230;2023-11-22T07:52:52;3.10;99.90
680;DHT22;322;48.846;9.230;2023-11-22T07:55:21;3.10;99.90
680;DHT22;322;48.846;9.230;2023-11-22T07:57:50;3.00;99.90
680;DHT22;322;48.846;9.230;2023-11-22T08:00:20;3.00;99.90
680;DHT22;322;48.846;9.230;2023-11-22T08:02:48;2.90;99.90
680;DHT22;322;48.846;9.230;2023-11-22T08:05:16;2.90;99.90
680;DHT22;322;48.846;9.230;2023-11-22T08:07:45;2.90;99.90
680;DHT22;322;48.846;9.230;2023-11-22T08:10:17;2.80;99.90
680;DHT22;322;48.846;9.230;2023-11-22T08:12:47;2.80;99.90
680;DHT22;322;48.846;9.230;2023-11-22T08:15:17;2.90;99.90
680;DHT22;322;48.846;9.230;2023-11-22T08:17:46;2.80;99.90
680;DHT22;322;48.846;9.230;2023-11-22T08:20:14;2.80;99.90
680;DHT22;322;48.846;9.230;2023-11-22T08:22:45;2.80;99.90
680;DHT22;322;48.846;9.230;2023-11-22T08:25:17;2.70;99.90
680;DHT22;322;48.846;9.230;2023-11-22T08:27:45;2.70;99.90
680;DHT22;322;48.846;9.230;2023-11-22T08:30:14;2.70;99.90
680;DHT22;322;48.846;9.230;2023-11-22T08:32:43;2.70;99.90
680;DHT22;322;48.846;9.230;2023-11-22T08:35:15;2.80;99.90
680;DHT22;322;48.846;9.230;2023-11-22T08:37:43;2.80;99.90
680;DHT22;322;48.846;9.230;2023-11-22T08:40:11;2.80;99.90
680;DHT22;322;48.846;9.230;2023-11-22T08:42:42;2.80;99.90
680;DHT22;322;48.846;9.230;2023-11-22T08:45:10;2.70;99.90
680;DHT22;322;48.846;9.230;2023-11-22T08:47:40;2.70;99.90
680;DHT22;322;48.846;9.230;2023-11-22T08:50:09;2.70;99.90
680;DHT22;322;48.846;9.230;2023-11-22T08:52:38;2.80;99.90
680;DHT22;322;48.846;9.230;2023-11-22T08:55:08;2.80;99.90
680;DHT22;322;48.846;9.230;2023-11-22T08:57:37;2.80;99.90
680;DHT22;322;48.846;9.230;2023-11-22T09:00:08;2.80;99.90
680;DHT22;322;48.846;9.230;2023-11-22T09:02:37;2.80;99.90
680;DHT22;322;48.846;9.230;2023-11-22T09:05:07;2.80;99.90
680;DHT22;322;48.846;9.230;2023-11-22T09:07:36;2.90;99.90
680;DHT22;322;48.846;9.230;2023-11-22T09:10:05;2.90;99.90
680;DHT22;322;48.846;9.230;2023-11-22T09:12:38;2.90;99.90
680;DHT22;322;48.846;9.230;2023-11-22T09:15:08;2.90;99.90
680;DHT22;322;48.846;9.230;2023-11-22T09:17:40;2.90;99.90
680;DHT22;322;48.846;9.230;2023-11-22T09:20:11;2.90;99.90
680;DHT22;322;48.846;9.230;2023-11-22T09:22:42;2.80;99.90
680;DHT22;322;48.846;9.230;2023-11-22T09:25:15;2.90;99.90
680;DHT22;322;48.846;9.230;2023-11-22T09:27:46;2.90;99.90
680;DHT22;322;48.846;9.230;2023-11-22T09:30:19;3.00;99.90
680;DHT22;322;48.846;9.230;2023-11-22T09:33:00;3.00;99.90
680;DHT22;322;48.846;9.230;2023-11-22T09:35:28;3.10;99.90
680;DHT22;322;48.846;9.230;2023-11-22T09:37:58;3.10;99.90
680;DHT22;322;48.846;9.230;2023-11-22T09:40:26;3.20;99.90
680;DHT22;322;48.846;9.230;2023-11-22T09:42:55;3.20;99.90
680;DHT22;322;48.846;9.230;2023-11-22T09:45:26;3.30;99.90
680;DHT22;322;48.846;9.230;2023-11-22T09:47:55;3.40;99.90
680;DHT22;322;48.846;9.230;2023-11-22T09:50:32;3.40;99.90
680;DHT22;322;48.846;9.230;2023-11-22T09:53:05;3.30;99.90
680;DHT22;322;48.846;9.230;2023-11-22T09:55:38;3.20;99.90
680;DHT22;322;48.846;9.230;2023-11-22T09:58:10;3.10;99.90
680;DHT22;322;48.846;9.230;2023-11-22T10:00:40;3.10;99.90
680;DHT22;322;48.846;9.230;2023-11-22T10:03:09;3.10;99.90
680;DHT22;322;48.846;9.230;2023-11-22T10:05:42;3.10;99.90
680;DHT22;322;48.846;9.230;2023-11-22T10:08:10;3.10;99.90
680;DHT22;322;48.846;9.230;2023-11-22T10:10:38;3.20;99.90
680;DHT22;322;48.846;9.230;2023-11-22T10:13:09;3.20;99.90
680;DHT22;322;48.846;9.230;2023-11-22T10:15:37;3.30;99.90
680;DHT22;322;48.846;9.230;2023-11-22T10:18:06;3.40;99.90
680;DHT22;322;48.846;9.230;2023-11-22T10:20:36;3.40;99.90
680;DHT22;322;48.846;9.230;2023-11-22T10:23:08;3.30;99.90
680;DHT22;322;48.846;9.230;2023-11-22T10:25:43;3.20;99.90
680;DHT22;322;48.846;9.230;2023-11-22T10:28:11;3.30;99.90
680;DHT22;322;48.846;9.230;2023-11-22T10:30:39;3.30;99.90
680;DHT22;322;48.846;9.230;2023-11-22T10:33:11;3.30;99.90
680;DHT22;322;48.846;9.230;2023-11-22T10:35:42;3.30;99.90
680;DHT22;322;48.846;9.230;2023-11-22T10:38:13;3.20;99.90
680;DHT22;322;48.846;9.230;2023-11-22T10:40:42;3.30;99.90
680;DHT22;322;48.846;9.230;2023-11-22T10:43:11;3.40;99.90
680;DHT22;322;48.846;9.230;2023-11-22T10:45:41;3.60;99.90
680;DHT22;322;48.846;9.230;2023-11-22T10:48:15;3.80;99.90
680;DHT22;322;48.846;9.230;2023-11-22T10:50:44;3.70;99.90
680;DHT22;322;48.846;9.230;2023-11-22T10:53:16;3.80;99.90
680;DHT22;322;48.846;9.230;2023-11-22T10:55:48;3.90;99.90
680;DHT22;322;48.846;9.230;2023-11-22T10:58:16;3.90;99.90
680;DHT22;322;48.846;9.230;2023-11-22T11:00:46;4.00;99.90
680;DHT22;322;48.846;9.230;2023-11-22T11:03:18;4.00;99.90
680;DHT22;322;48.846;9.230;2023-11-22T11:05:52;4.20;99.90
680;DHT22;322;48.846;9.230;2023-11-22T11:08:23;4.20;99.90
680;DHT22;322;48.846;9.230;2023-11-22T11:10:54;4.30;99.90
680;DHT22;322;48.846;9.230;2023-11-22T11:13:23;4.20;99.90
680;DHT22;322;48.846;9.230;2023-11-22T11:15:53;4.20;99.90
680;DHT22;322;48.846;9.230;2023-11-22T11:18:24;4.20;99.90
680;DHT22;322;48.846;9.230;2023-11-22T11:20:56;4.20;99.90
680;DHT22;322;48.846;9.230;2023-11-22T11:23:26;4.40;99.90
680;DHT22;322;48.846;9.230;2023-11-22T11:25:55;4.40;99.90
680;DHT22;322;48.846;9.230;2023-11-22T11:28:24;4.40;99.90
680;DHT22;322;48.846;9.230;2023-11-22T11:30:53;4.30;99.90
680;DHT22;322;48.846;9.230;2023-11-22T11:33:32;4.20;99.90
680;DHT22;322;48.846;9.230;2023-11-22T11:36:01;4.00;99.90
680;DHT22;322;48.846;9.230;2023-11-22T11:38:31;3.90;99.90
680;DHT22;322;48.846;9.230;2023-11-22T11:41:08;3.90;99.90
680;DHT22;322;48.846;9.230;2023-11-22T11:43:40;4.00;99.90
680;DHT22;322;48.846;9.230;2023-11-22T11:46:09;4.00;99.90
680;DHT22;322;48.846;9.230;2023-11-22T11:48:42;4.00;99.90
680;DHT22;322;48.846;9.230;2023-11-22T11:51:13;3.90;99.90
680;DHT22;322;48.846;9.230;2023-11-22T11:53:41;3.90;99.90
680;DHT22;322;48.846;9.230;2023-11-22T11:56:10;3.90;99.90
680;DHT22;322;48.846;9.230;2023-11-22T11:58:38;3.80;99.90
680;DHT22;322;48.846;9.230;2023-11-22T12:01:06;3.90;99.90
680;DHT22;322;48.846;9.230;2023-11-22T12:03:35;3.80;99.90
680;DHT22;322;48.846;9.230;2023-11-22T12:06:06;3.80;99.90
680;DHT22;322;48.846;9.230;2023-11-22T12:08:34;3.90;99.90
680;DHT22;322;48.846;9.230;2023-11-22T12:11:03;3.80;99.90
680;DHT22;322;48.846;9.230;2023-11-22T12:13:34;3.80;99.90
680;DHT22;322;48.846;9.230;2023-11-22T12:16:05;3.80;99.90
680;DHT22;322;48.846;9.230;2023-11-22T12:18:40;3.80;99.90
680;DHT22;322;48.846;9.230;2023-11-22T12:21:12;3.70;99.90
680;DHT22;322;48.846;9.230;2023-11-22T12:23:41;3.70;99.90
680;DHT22;322;48.846;9.230;2023-11-22T12:26:11;3.60;99.90
680;DHT22;322;48.846;9.230;2023-11-22T12:28:40;3.50;99.90
680;DHT22;322;48.846;9.230;2023-11-22T12:31:20;3.50;99.90
680;DHT22;322;48.846;9.230;2023-11-22T12:33:48;3.60;99.90
680;DHT22;322;48.846;9.230;2023-11-22T12:36:21;3.60;99.90
680;DHT22;322;48.846;9.230;2023-11-22T12:38:49;3.60;99.90
680;DHT22;322;48.846;9.230;2023-11-22T12:41:18;3.60;99.90
680;DHT22;322;48.846;9.230;2023-11-22T12:44:02;3.60;99.90
680;DHT22;322;48.846;9.230;2023-11-22T12:46:45;3.60;99.90
680;DHT22;322;48.846;9.230;2023-11-22T12:49:13;3.70;99.90
680;DHT22;322;48.846;9.230;2023-11-22T12:51:47;3.70;99.90
680;DHT22;322;48.846;9.230;2023-11-22T12:54:16;3.70;99.90
680;DHT22;322;48.846;9.230;2023-11-22T12:56:47;3.80;99.90
680;DHT22;322;48.846;9.230;2023-11-22T12:59:17;3.70;99.90
680;DHT22;322;48.846;9.230;2023-11-22T13:01:45;3.70;99.90
680;DHT22;322;48.846;9.230;2023-11-22T13:04:13;3.70;99.90
680;DHT22;322;48.846;9.230;2023-11-22T13:06:42;3.80;99.90
680;DHT22;322;48.846;9.230;2023-11-22T13:09:11;3.80;99.90
680;DHT22;322;48.846;9.230;2023-11-22T13:11:42;3.80;99.90
680;DHT22;322;48.846;9.230;2023-11-22T13:14:11;3.70;99.90
680;DHT22;322;48.846;9.230;2023-11-22T13:16:41;3.70;99.90
680;DHT22;322;48.846;9.230;2023-11-22T13:19:09;3.70;99.90
680;DHT22;322;48.846;9.230;2023-11-22T13:21:37;3.70;99.90
680;DHT22;322;48.846;9.230;2023-11-22T13:24:07;3.70;99.90
680;DHT22;322;48.846;9.230;2023-11-22T13:26:37;3.70;99.90
680;DHT22;322;48.846;9.230;2023-11-22T13:29:05;3.70;99.90
680;DHT22;322;48.846;9.230;2023-11-22T13:31:33;3.70;99.90
680;DHT22;322;48.846;9.230;2023-11-22T13:34:01;3.60;99.90
680;DHT22;322;48.846;9.230;2023-11-22T13:36:29;3.60;99.90
680;DHT22;322;48.846;9.230;2023-11-22T13:38:58;3.60;99.90
680;DHT22;322;48.846;9.230;2023-11-22T13:41:26;3.50;99.90
680;DHT22;322;48.846;9.230;2023-11-22T13:43:56;3.50;99.90
680;DHT22;322;48.846;9.230;2023-11-22T13:46:24;3.50;99.90
680;DHT22;322;48.846;9.230;2023-11-22T13:48:53;3.50;99.90
680;DHT22;322;48.846;9.230;2023-11-22T13:51:20;3.60;99.90
680;DHT22;322;48.846;9.230;2023-11-22T13:53:51;3.70;99.90
680;DHT22;322;48.846;9.230;2023-11-22T13:56:20;3.70;99.90
680;DHT22;322;48.846;9.230;2023-11-22T13:58:48;3.60;99.90
680;DHT22;322;48.846;9.230;2023-11-22T14:01:18;3.60;99.90
680;DHT22;322;48.846;9.230;2023-11-22T14:03:49;3.60;99.90
680;DHT22;322;48.846;9.230;2023-11-22T14:06:19;3.60;99.90
680;DHT22;322;48.846;9.230;2023-11-22T14:08:47;3.60;99.90
680;DHT22;322;48.846;9.230;2023-11-22T14:11:15;3.50;99.90
680;DHT22;322;48.846;9.230;2023-11-22T14:13:43;3.50;99.90
680;DHT22;322;48.846;9.230;2023-11-22T14:16:11;3.50;99.90
680;DHT22;322;48.846;9.230;2023-11-22T14:18:41;3.60;99.90
680;DHT22;322;48.846;9.230;2023-11-22T14:21:09;3.50;99.90
680;DHT22;322;48.846;9.230;2023-11-22T14:23:37;3.50;99.90
680;DHT22;322;48.846;9.230;2023-11-22T14:26:05;3.50;99.90
680;DHT22;322;48.846;9.230;2023-11-22T14:28:33;3.50;99.90
680;DHT22;322;48.846;9.230;2023-11-22T14:31:01;3.50;99.90
680;DHT22;322;48.846;9.230;2023-11-22T14:33:30;3.40;99.90
680;DHT22;322;48.846;9.230;2023-11-22T14:36:00;3.40;99.90
680;DHT22;322;48.846;9.230;2023-11-22T14:38:28;3.50;99.90
680;DHT22;322;48.846;9.230;2023-11-22T14:40:57;3.50;99.90
680;DHT22;322;48.846;9.230;2023-11-22T14:43:25;3.60;99.90
680;DHT22;322;48.846;9.230;2023-11-22T14:45:54;3.60;99.90
680;DHT22;322;48.846;9.230;2023-11-22T14:48:22;3.70;99.90
680;DHT22;322;48.846;9.230;2023-11-22T14:50:50;3.80;99.90
680;DHT22;322;48.846;9.230;2023-11-22T14:53:20;3.80;99.90
680;DHT22;322;48.846;9.230;2023-11-22T14:55:48;3.80;99.90
680;DHT22;322;48.846;9.230;2023-11-22T14:58:16;3.80;99.90
680;DHT22;322;48.846;9.230;2023-11-22T15:00:44;3.80;99.90
680;DHT22;322;48.846;9.230;2023-11-22T15:03:12;3.90;99.90
680;DHT22;322;48.846;9.230;2023-11-22T15:05:40;3.90;99.90
680;DHT22;322;48.846;9.230;2023-11-22T15:08:09;4.00;99.90
680;DHT22;322;48.846;9.230;2023-11-22T15:10:38;4.00;99.90
680;DHT22;322;48.846;9.230;2023-11-22T15:13:06;4.00;99.90
680;DHT22;322;48.846;9.230;2023-11-22T15:15:35;4.00;99.90
680;DHT22;322;48.846;9.230;2023-11-22T15:18:03;3.90;99.90
680;DHT22;322;48.846;9.230;2023-11-22T15:20:31;3.90;99.90
680;DHT22;322;48.846;9.230;2023-11-22T15:23:00;3.90;99.90
680;DHT22;322;48.846;9.230;2023-11-22T15:25:30;3.90;99.90
680;DHT22;322;48.846;9.230;2023-11-22T15:27:59;3.80;99.90
680;DHT22;322;48.846;9.230;2023-11-22T15:30:27;3.80;99.90
680;DHT22;322;48.846;9.230;2023-11-22T15:32:55;3.70;99.90
680;DHT22;322;48.846;9.230;2023-11-22T15:35:23;3.60;99.90
680;DHT22;322;48.846;9.230;2023-11-22T15:37:52;3.60;99.90
680;DHT22;322;48.846;9.230;2023-11-22T15:40:21;3.80;99.90
680;DHT22;322;48.846;9.230;2023-11-22T15:42:49;3.80;99.90
680;DHT22;322;48.846;9.230;2023-11-22T15:45:18;3.80;99.90
680;DHT22;322;48.846;9.230;2023-11-22T15:47:48;3.70;99.90
680;DHT22;322;48.846;9.230;2023-11-22T15:50:16;3.70;99.90
680;DHT22;322;48.846;9.230;2023-11-22T15:52:44;3.70;99.90
680;DHT22;322;48.846;9.230;2023-11-22T15:55:12;3.60;99.90
680;DHT22;322;48.846;9.230;2023-11-22T15:57:40;3.50;99.90
680;DHT22;322;48.846;9.230;2023-11-22T16:00:09;3.60;99.90
680;DHT22;322;48.846;9.230;2023-11-22T16:02:39;3.50;99.90
680;DHT22;322;48.846;9.230;2023-11-22T16:05:07;3.50;99.90
680;DHT22;322;48.846;9.230;2023-11-22T16:07:40;3.40;99.90
680;DHT22;322;48.846;9.230;2023-11-22T16:10:09;3.40;99.90
680;DHT22;322;48.846;9.230;2023-11-22T16:12:37;3.40;99.90
680;DHT22;322;48.846;9.230;2023-11-22T16:15:06;3.50;99.90
680;DHT22;322;48.846;9.230;2023-11-22T16:17:34;3.50;99.90
680;DHT22;322;48.846;9.230;2023-11-22T16:20:06;3.50;99.90
680;DHT22;322;48.846;9.230;2023-11-22T16:22:38;3.50;99.90
680;DHT22;322;48.846;9.230;2023-11-22T16:25:06;3.40;99.90
680;DHT22;322;48.846;9.230;2023-11-22T16:27:34;3.50;99.90
680;DHT22;322;48.846;9.230;2023-11-22T16:30:03;3.60;99.90
680;DHT22;322;48.846;9.230;2023-11-22T16:32:31;3.60;99.90
680;DHT22;322;48.846;9.230;2023-11-22T16:34:59;3.60;99.90
680;DHT22;322;48.846;9.230;2023-11-22T16:37:29;3.70;99.90
680;DHT22;322;48.846;9.230;2023-11-22T16:39:57;3.70;99.90
680;DHT22;322;48.846;9.230;2023-11-22T16:42:30;3.70;99.90
680;DHT22;322;48.846;9.230;2023-11-22T16:44:58;3.60;99.90
680;DHT22;322;48.846;9.230;2023-11-22T16:47:26;3.50;99.90
680;DHT22;322;48.846;9.230;2023-11-22T16:49:54;3.50;99.90
680;DHT22;322;48.846;9.230;2023-11-22T16:52:22;3.60;99.90
680;DHT22;322;48.846;9.230;2023-11-22T16:54:57;3.50;99.90
680;DHT22;322;48.846;9.230;2023-11-22T16:57:25;3.50;99.90
680;DHT22;322;48.846;9.230;2023-11-22T16:59:53;3.50;99.90
680;DHT22;322;48.846;9.230;2023-11-22T17:02:21;3.50;99.90
680;DHT22;322;48.846;9.230;2023-11-22T17:04:49;3.40;99.90